sensor_id;sensor_type;location;lat;lon;timestamp;pressure;altitude;pressure_sealevel;temperature;humidity
6425;BME280;12193;42.642;23.384;2023-03-04T00:01:15;94454.09;;;6.48;100.00
6425;BME280;12193;42.642;23.384;2023-03-04T00:03:45;94454.50;;;6.37;100.00
6425;BME280;12193;42.642;23.384;2023-03-04T00:06:14;94448.38;;;6.38;100.00
6425;BME280;12193;42.642;23.384;2023-03-04T00:08:44;94447.75;;;6.36;100.00
6425;BME280;12193;42.642;23.384;2023-03-04T00:11:15;94443.75;;;6.33;100.00
6425;BME280;12193;42.642;23.384;2023-03-04T00:13:45;94449.63;;;6.42;100.00
6425;BME280;12193;42.642;23.384;2023-03-04T00:16:14;94436.53;;;6.43;100.00
6425;BME280;12193;42.642;23.384;2023-03-04T00:18:44;94441.97;;;6.48;100.00
6425;BME280;12193;42.642;23.384;2023-03-04T00:21:13;94442.06;;;6.55;100.00
6425;BME280;12193;42.642;23.384;2023-03-04T00:28:57;94433.59;;;6.46;100.00
6425;BME280;12193;42.642;23.384;2023-03-04T00:31:26;94437.06;;;6.39;100.00
6425;BME280;12193;42.642;23.384;2023-03-04T00:33:56;94438.50;;;6.41;100.00
6425;BME280;12193;42.642;23.384;2023-03-04T00:36:25;94434.91;;;6.42;100.00
6425;BME280;12193;42.642;23.384;2023-03-04T00:38:54;94434.41;;;6.47;100.00
6425;BME280;12193;42.642;23.384;2023-03-04T00:41:24;94437.44;;;6.50;100.00
6425;BME280;12193;42.642;23.384;2023-03-04T00:43:56;94435.56;;;6.30;100.00
6425;BME280;12193;42.642;23.384;2023-03-04T00:46:25;94432.00;;;6.31;100.00
6425;BME280;12193;42.642;23.384;2023-03-04T00:48:55;94434.94;;;6.28;100.00
6425;BME280;12193;42.642;23.384;2023-03-04T00:51:24;94443.31;;;6.30;100.00
6425;BME280;12193;42.642;23.384;2023-03-04T00:53:53;94435.94;;;6.41;100.00
6425;BME280;12193;42.642;23.384;2023-03-04T00:56:23;94433.69;;;6.24;100.00
6425;BME280;12193;42.642;23.384;2023-03-04T00:58:52;94426.97;;;6.15;100.00
6425;BME280;12193;42.642;23.384;2023-03-04T01:01:24;94429.41;;;6.17;100.00
6425;BME280;12193;42.642;23.384;2023-03-04T01:03:53;94429.75;;;6.14;100.00
6425;BME280;12193;42.642;23.384;2023-03-04T01:06:23;94427.25;;;6.20;100.00
6425;BME280;12193;42.642;23.384;2023-03-04T04:08:29;94355.59;;;5.79;100.00
6425;BME280;12193;42.642;23.384;2023-03-04T04:10:59;94355.22;;;5.45;100.00
6425;BME280;12193;42.642;23.384;2023-03-04T04:13:29;94354.41;;;5.22;100.00
6425;BME280;12193;42.642;23.384;2023-03-04T04:15:58;94348.84;;;5.10;100.00
6425;BME280;12193;42.642;23.384;2023-03-04T04:18:28;94338.69;;;4.95;100.00
6425;BME280;12193;42.642;23.384;2023-03-04T04:20:57;94348.81;;;4.96;100.00
6425;BME280;12193;42.642;23.384;2023-03-04T04:23:29;94346.72;;;4.92;100.00
6425;BME280;12193;42.642;23.384;2023-03-04T04:25:58;94344.75;;;5.02;100.00
6425;BME280;12193;42.642;23.384;2023-03-04T04:28:28;94345.91;;;4.99;100.00
6425;BME280;12193;42.642;23.384;2023-03-04T04:30:57;94349.34;;;5.14;100.00
6425;BME280;12193;42.642;23.384;2023-03-04T04:33:27;94347.84;;;4.97;100.00
6425;BME280;12193;42.642;23.384;2023-03-04T04:35:56;94351.16;;;5.06;100.00
6425;BME280;12193;42.642;23.384;2023-03-04T04:38:29;94350.44;;;4.97;100.00
6425;BME280;12193;42.642;23.384;2023-03-04T04:40:59;94356.25;;;5.13;100.00
6425;BME280;12193;42.642;23.384;2023-03-04T04:43:28;94354.03;;;4.50;100.00
6425;BME280;12193;42.642;23.384;2023-03-04T04:45:59;94351.38;;;4.35;100.00
6425;BME280;12193;42.642;23.384;2023-03-04T04:48:29;94343.44;;;4.07;100.00
6425;BME280;12193;42.642;23.384;2023-03-04T04:50:58;94353.28;;;3.95;100.00
6425;BME280;12193;42.642;23.384;2023-03-04T04:53:30;94357.00;;;3.85;100.00
6425;BME280;12193;42.642;23.384;2023-03-04T04:55:59;94357.13;;;3.91;100.00
6425;BME280;12193;42.642;23.384;2023-03-04T04:58:29;94355.22;;;3.93;100.00
6425;BME280;12193;42.642;23.384;2023-03-04T05:00:58;94369.16;;;3.99;100.00
6425;BME280;12193;42.642;23.384;2023-03-04T05:03:27;94365.00;;;3.98;100.00
6425;BME280;12193;42.642;23.384;2023-03-04T05:05:57;94362.47;;;3.82;100.00
6425;BME280;12193;42.642;23.384;2023-03-04T05:08:26;94367.25;;;4.01;100.00
6425;BME280;12193;42.642;23.384;2023-03-04T05:10:58;94377.16;;;4.19;100.00
6425;BME280;12193;42.642;23.384;2023-03-04T05:13:28;94373.22;;;4.39;100.00
6425;BME280;12193;42.642;23.384;2023-03-04T05:15:58;94365.72;;;4.60;100.00
6425;BME280;12193;42.642;23.384;2023-03-04T05:18:27;94373.41;;;4.76;100.00
6425;BME280;12193;42.642;23.384;2023-03-04T05:20:58;94378.13;;;4.65;100.00
6425;BME280;12193;42.642;23.384;2023-03-04T05:23:30;94382.44;;;4.64;100.00
6425;BME280;12193;42.642;23.384;2023-03-04T05:26:04;94385.44;;;4.76;100.00
6425;BME280;12193;42.642;23.384;2023-03-04T05:28:34;94389.72;;;4.61;100.00
6425;BME280;12193;42.642;23.384;2023-03-04T05:31:04;94387.16;;;4.53;100.00
6425;BME280;12193;42.642;23.384;2023-03-04T05:33:33;94395.38;;;4.56;100.00
6425;BME280;12193;42.642;23.384;2023-03-04T05:36:04;94392.31;;;4.53;100.00
6425;BME280;12193;42.642;23.384;2023-03-04T05:38:34;94385.63;;;4.74;100.00
6425;BME280;12193;42.642;23.384;2023-03-04T05:41:07;94397.31;;;4.54;100.00
6425;BME280;12193;42.642;23.384;2023-03-04T05:43:36;94398.59;;;4.58;100.00
6425;BME280;12193;42.642;23.384;2023-03-04T05:46:12;94398.41;;;4.60;100.00
6425;BME280;12193;42.642;23.384;2023-03-04T05:48:43;94397.75;;;4.66;100.00
6425;BME280;12193;42.642;23.384;2023-03-04T05:51:13;94397.75;;;4.66;100.00
6425;BME280;12193;42.642;23.384;2023-03-04T05:53:42;94399.16;;;4.68;100.00
6425;BME280;12193;42.642;23.384;2023-03-04T05:56:16;94401.53;;;4.78;100.00
6425;BME280;12193;42.642;23.384;2023-03-04T05:58:46;94404.75;;;4.80;100.00
6425;BME280;12193;42.642;23.384;2023-03-04T06:01:16;94400.66;;;4.55;100.00
6425;BME280;12193;42.642;23.384;2023-03-04T06:03:45;94403.97;;;4.33;100.00
6425;BME280;12193;42.642;23.384;2023-03-04T06:06:16;94411.03;;;4.39;100.00
6425;BME280;12193;42.642;23.384;2023-03-04T06:08:45;94404.06;;;4.47;100.00
6425;BME280;12193;42.642;23.384;2023-03-04T06:11:17;94397.13;;;4.56;100.00
6425;BME280;12193;42.642;23.384;2023-03-04T06:13:46;94410.19;;;4.85;100.00
6425;BME280;12193;42.642;23.384;2023-03-04T06:16:15;94416.91;;;4.94;100.00
6425;BME280;12193;42.642;23.384;2023-03-04T06:18:44;94415.25;;;5.01;100.00
6425;BME280;12193;42.642;23.384;2023-03-04T06:21:14;94413.84;;;4.98;100.00
6425;BME280;12193;42.642;23.384;2023-03-04T06:23:43;94416.75;;;4.95;100.00
6425;BME280;12193;42.642;23.384;2023-03-04T06:26:13;94411.69;;;5.10;100.00
6425;BME280;12193;42.642;23.384;2023-03-04T06:28:45;94414.63;;;5.21;100.00
6425;BME280;12193;42.642;23.384;2023-03-04T06:31:14;94414.00;;;5.49;100.00
6425;BME280;12193;42.642;23.384;2023-03-04T06:33:44;94417.53;;;5.48;100.00
6425;BME280;12193;42.642;23.384;2023-03-04T06:36:13;94421.97;;;5.54;100.00
6425;BME280;12193;42.642;23.384;2023-03-04T06:38:42;94425.81;;;5.58;100.00
6425;BME280;12193;42.642;23.384;2023-03-04T06:41:12;94421.19;;;5.54;100.00
6425;BME280;12193;42.642;23.384;2023-03-04T06:43:41;94430.91;;;5.44;100.00
6425;BME280;12193;42.642;23.384;2023-03-04T06:46:13;94431.66;;;5.52;100.00
6425;BME280;12193;42.642;23.384;2023-03-04T06:48:43;94429.16;;;5.44;100.00
6425;BME280;12193;42.642;23.384;2023-03-04T06:51:12;94429.72;;;5.32;100.00
6425;BME280;12193;42.642;23.384;2023-03-04T06:53:42;94431.88;;;5.20;100.00
6425;BME280;12193;42.642;23.384;2023-03-04T06:56:13;94432.94;;;5.34;100.00
6425;BME280;12193;42.642;23.384;2023-03-04T06:58:44;94432.63;;;5.51;100.00
6425;BME280;12193;42.642;23.384;2023-03-04T07:01:18;94432.47;;;5.53;100.00
6425;BME280;12193;42.642;23.384;2023-03-04T07:03:51;94427.78;;;5.56;100.00
6425;BME280;12193;42.642;23.384;2023-03-04T07:06:22;94434.72;;;5.56;100.00
6425;BME280;12193;42.642;23.384;2023-03-04T07:08:52;94447.41;;;5.57;100.00
6425;BME280;12193;42.642;23.384;2023-03-04T07:11:22;94434.75;;;5.48;100.00
6425;BME280;12193;42.642;23.384;2023-03-04T07:13:52;94433.91;;;5.55;100.00
6425;BME280;12193;42.642;23.384;2023-03-04T07:16:24;94443.91;;;5.50;100.00
6425;BME280;12193;42.642;23.384;2023-03-04T07:18:53;94443.69;;;5.37;100.00
6425;BME280;12193;42.642;23.384;2023-03-04T07:21:23;94436.25;;;5.42;100.00
6425;BME280;12193;42.642;23.384;2023-03-04T07:23:52;94434.88;;;5.54;100.00
6425;BME280;12193;42.642;23.384;2023-03-04T07:26:21;94438.22;;;5.10;100.00
6425;BME280;12193;42.642;23.384;2023-03-04T07:28:51;94444.78;;;5.43;100.00
6425;BME280;12193;42.642;23.384;2023-03-04T07:31:27;94442.38;;;5.64;100.00
6425;BME280;12193;42.642;23.384;2023-03-04T07:33:58;94438.03;;;5.64;100.00
6425;BME280;12193;42.642;23.384;2023-03-04T07:36:28;94450.63;;;5.82;100.00
6425;BME280;12193;42.642;23.384;2023-03-04T07:38:58;94436.97;;;5.81;100.00
6425;BME280;12193;42.642;23.384;2023-03-04T07:41:27;94438.56;;;5.82;100.00
6425;BME280;12193;42.642;23.384;2023-03-04T07:43:58;94443.66;;;5.90;100.00
6425;BME280;12193;42.642;23.384;2023-03-04T07:46:30;94442.16;;;5.96;100.00
6425;BME280;12193;42.642;23.384;2023-03-04T07:48:59;94437.97;;;5.95;100.00
6425;BME280;12193;42.642;23.384;2023-03-04T07:51:29;94434.19;;;6.05;100.00
6425;BME280;12193;42.642;23.384;2023-03-04T07:53:59;94436.06;;;6.11;100.00
6425;BME280;12193;42.642;23.384;2023-03-04T07:56:31;94431.19;;;6.30;100.00
6425;BME280;12193;42.642;23.384;2023-03-04T07:59:01;94433.22;;;6.35;100.00
6425;BME280;12193;42.642;23.384;2023-03-04T08:01:34;94440.25;;;6.26;100.00
6425;BME280;12193;42.642;23.384;2023-03-04T08:04:05;94431.88;;;6.24;100.00
6425;BME280;12193;42.642;23.384;2023-03-04T08:06:35;94437.50;;;6.14;100.00
6425;BME280;12193;42.642;23.384;2023-03-04T08:09:06;94428.22;;;6.05;100.00
6425;BME280;12193;42.642;23.384;2023-03-04T08:11:36;94428.88;;;6.21;100.00
6425;BME280;12193;42.642;23.384;2023-03-04T08:14:06;94428.66;;;6.22;100.00
6425;BME280;12193;42.642;23.384;2023-03-04T08:16:38;94434.66;;;6.23;100.00
6425;BME280;12193;42.642;23.384;2023-03-04T08:19:09;94427.91;;;6.36;100.00
6425;BME280;12193;42.642;23.384;2023-03-04T08:21:39;94433.34;;;6.56;100.00
6425;BME280;12193;42.642;23.384;2023-03-04T08:24:10;94431.84;;;6.61;100.00
6425;BME280;12193;42.642;23.384;2023-03-04T08:26:42;94430.22;;;6.75;100.00
6425;BME280;12193;42.642;23.384;2023-03-04T08:29:15;94433.34;;;6.85;100.00
6425;BME280;12193;42.642;23.384;2023-03-04T08:31:49;94426.81;;;7.03;100.00
6425;BME280;12193;42.642;23.384;2023-03-04T08:34:21;94421.19;;;7.00;100.00
6425;BME280;12193;42.642;23.384;2023-03-04T08:36:51;94425.03;;;6.75;100.00
6425;BME280;12193;42.642;23.384;2023-03-04T08:39:20;94428.97;;;7.20;100.00
6425;BME280;12193;42.642;23.384;2023-03-04T08:41:50;94421.78;;;7.72;100.00
6425;BME280;12193;42.642;23.384;2023-03-04T08:44:19;94420.88;;;8.07;100.00
6425;BME280;12193;42.642;23.384;2023-03-04T08:46:51;94426.72;;;8.16;100.00
6425;BME280;12193;42.642;23.384;2023-03-04T08:49:20;94418.66;;;8.04;100.00
6425;BME280;12193;42.642;23.384;2023-03-04T08:51:49;94417.47;;;8.07;100.00
6425;BME280;12193;42.642;23.384;2023-03-04T08:54:19;94421.81;;;8.00;100.00
6425;BME280;12193;42.642;23.384;2023-03-04T08:56:48;94417.31;;;8.08;100.00
6425;BME280;12193;42.642;23.384;2023-03-04T08:59:17;94422.97;;;8.18;100.00
6425;BME280;12193;42.642;23.384;2023-03-04T09:01:47;94418.53;;;8.12;100.00
6425;BME280;12193;42.642;23.384;2023-03-04T09:04:20;94410.44;;;7.73;100.00
6425;BME280;12193;42.642;23.384;2023-03-04T09:06:49;94407.59;;;7.89;100.00
6425;BME280;12193;42.642;23.384;2023-03-04T09:09:18;94406.91;;;8.02;100.00
6425;BME280;12193;42.642;23.384;2023-03-04T09:11:48;94410.22;;;7.96;100.00
6425;BME280;12193;42.642;23.384;2023-03-04T09:14:18;94404.66;;;7.71;100.00
6425;BME280;12193;42.642;23.384;2023-03-04T09:16:47;94406.59;;;7.27;100.00
6425;BME280;12193;42.642;23.384;2023-03-04T09:19:19;94395.31;;;7.14;100.00
6425;BME280;12193;42.642;23.384;2023-03-04T09:21:49;94403.28;;;7.33;100.00
6425;BME280;12193;42.642;23.384;2023-03-04T09:24:20;94397.50;;;7.31;100.00
6425;BME280;12193;42.642;23.384;2023-03-04T09:26:50;94394.16;;;7.37;100.00
6425;BME280;12193;42.642;23.384;2023-03-04T09:29:20;94398.13;;;7.33;100.00
6425;BME280;12193;42.642;23.384;2023-03-04T09:31:50;94391.03;;;7.21;100.00
6425;BME280;12193;42.642;23.384;2023-03-04T09:34:22;94390.56;;;7.18;100.00
6425;BME280;12193;42.642;23.384;2023-03-04T09:36:51;94390.44;;;7.40;100.00
6425;BME280;12193;42.642;23.384;2023-03-04T09:39:20;94387.97;;;7.53;100.00
6425;BME280;12193;42.642;23.384;2023-03-04T09:41:52;94389.63;;;7.60;100.00
6425;BME280;12193;42.642;23.384;2023-03-04T09:44:28;94393.41;;;7.22;100.00
6425;BME280;12193;42.642;23.384;2023-03-04T09:46:59;94387.47;;;7.22;100.00
6425;BME280;12193;42.642;23.384;2023-03-04T09:49:33;94390.22;;;7.41;100.00
6425;BME280;12193;42.642;23.384;2023-03-04T09:52:06;94381.16;;;7.73;100.00
6425;BME280;12193;42.642;23.384;2023-03-04T09:54:59;94386.25;;;8.08;100.00
6425;BME280;12193;42.642;23.384;2023-03-04T09:57:43;94383.03;;;7.58;100.00
6425;BME280;12193;42.642;23.384;2023-03-04T10:00:18;94382.88;;;7.87;100.00
6425;BME280;12193;42.642;23.384;2023-03-04T10:03:03;94383.41;;;8.03;100.00
6425;BME280;12193;42.642;23.384;2023-03-04T10:05:39;94373.69;;;8.32;100.00
6425;BME280;12193;42.642;23.384;2023-03-04T10:08:26;94372.03;;;7.98;100.00
6425;BME280;12193;42.642;23.384;2023-03-04T10:11:02;94378.22;;;7.76;100.00
6425;BME280;12193;42.642;23.384;2023-03-04T10:13:36;94363.59;;;7.62;100.00
6425;BME280;12193;42.642;23.384;2023-03-04T10:16:08;94367.91;;;7.82;100.00
6425;BME280;12193;42.642;23.384;2023-03-04T10:18:44;94368.63;;;7.97;100.00
6425;BME280;12193;42.642;23.384;2023-03-04T10:21:22;94359.38;;;8.09;100.00
6425;BME280;12193;42.642;23.384;2023-03-04T10:23:54;94364.56;;;8.36;100.00
6425;BME280;12193;42.642;23.384;2023-03-04T10:26:28;94361.22;;;8.15;100.00
6425;BME280;12193;42.642;23.384;2023-03-04T10:28:58;94354.78;;;8.05;100.00
6425;BME280;12193;42.642;23.384;2023-03-04T10:31:34;94350.72;;;8.23;100.00
6425;BME280;12193;42.642;23.384;2023-03-04T10:34:04;94350.78;;;8.36;100.00
6425;BME280;12193;42.642;23.384;2023-03-04T10:36:46;94350.78;;;8.36;100.00
6425;BME280;12193;42.642;23.384;2023-03-04T10:39:18;94339.78;;;8.61;100.00
6425;BME280;12193;42.642;23.384;2023-03-04T10:41:57;94337.81;;;8.70;100.00
6425;BME280;12193;42.642;23.384;2023-03-04T10:44:28;94337.94;;;8.55;100.00
6425;BME280;12193;42.642;23.384;2023-03-04T10:46:59;94321.09;;;8.79;100.00
6425;BME280;12193;42.642;23.384;2023-03-04T10:49:29;94324.78;;;9.10;100.00
6425;BME280;12193;42.642;23.384;2023-03-04T10:52:17;94321.84;;;9.32;100.00
6425;BME280;12193;42.642;23.384;2023-03-04T10:54:49;94323.78;;;8.98;100.00
6425;BME280;12193;42.642;23.384;2023-03-04T10:57:23;94314.50;;;8.63;100.00
6425;BME280;12193;42.642;23.384;2023-03-04T10:59:55;94320.78;;;8.48;100.00
6425;BME280;12193;42.642;23.384;2023-03-04T11:02:27;94309.72;;;8.73;100.00
6425;BME280;12193;42.642;23.384;2023-03-04T11:05:06;94307.59;;;8.43;100.00
6425;BME280;12193;42.642;23.384;2023-03-04T11:07:39;94301.00;;;8.34;100.00
6425;BME280;12193;42.642;23.384;2023-03-04T11:10:13;94294.94;;;8.61;100.00
6425;BME280;12193;42.642;23.384;2023-03-04T11:12:48;94280.25;;;8.87;100.00
6425;BME280;12193;42.642;23.384;2023-03-04T11:15:20;94287.88;;;9.02;100.00
6425;BME280;12193;42.642;23.384;2023-03-04T11:17:54;94274.78;;;9.35;100.00
6425;BME280;12193;42.642;23.384;2023-03-04T11:20:29;94279.38;;;9.46;99.84
6425;BME280;12193;42.642;23.384;2023-03-04T11:23:05;94265.00;;;9.50;100.00
6425;BME280;12193;42.642;23.384;2023-03-04T11:25:39;94268.59;;;9.75;97.62
6425;BME280;12193;42.642;23.384;2023-03-04T11:28:14;94264.41;;;9.55;100.00
6425;BME280;12193;42.642;23.384;2023-03-04T11:30:49;94256.75;;;9.99;97.31
6425;BME280;12193;42.642;23.384;2023-03-04T11:33:26;94254.63;;;9.76;96.45
6425;BME280;12193;42.642;23.384;2023-03-04T11:36:05;94248.63;;;9.69;97.29
6425;BME280;12193;42.642;23.384;2023-03-04T11:38:42;94252.63;;;9.52;98.01
6425;BME280;12193;42.642;23.384;2023-03-04T11:41:15;94250.22;;;9.77;96.96
6425;BME280;12193;42.642;23.384;2023-03-04T11:43:47;94237.81;;;9.85;95.47
6425;BME280;12193;42.642;23.384;2023-03-04T11:46:34;94245.81;;;9.71;94.78
6425;BME280;12193;42.642;23.384;2023-03-04T11:49:29;94243.03;;;9.72;95.58
6425;BME280;12193;42.642;23.384;2023-03-04T11:52:07;94237.41;;;9.95;95.03
6425;BME280;12193;42.642;23.384;2023-03-04T11:54:49;94227.25;;;10.50;90.74
6425;BME280;12193;42.642;23.384;2023-03-04T11:57:32;94226.94;;;10.77;90.60
6425;BME280;12193;42.642;23.384;2023-03-04T12:00:29;94228.69;;;9.50;96.35
6425;BME280;12193;42.642;23.384;2023-03-04T12:03:26;94228.06;;;9.61;96.54
6425;BME280;12193;42.642;23.384;2023-03-04T12:06:06;94221.69;;;9.70;96.58
6425;BME280;12193;42.642;23.384;2023-03-04T12:08:59;94212.72;;;9.40;97.49
6425;BME280;12193;42.642;23.384;2023-03-04T12:11:41;94222.50;;;9.26;97.36
6425;BME280;12193;42.642;23.384;2023-03-04T12:14:24;94216.50;;;9.44;98.32
6425;BME280;12193;42.642;23.384;2023-03-04T12:17:17;94212.50;;;9.68;95.87
6425;BME280;12193;42.642;23.384;2023-03-04T12:20:02;94204.53;;;9.63;95.56
6425;BME280;12193;42.642;23.384;2023-03-04T12:22:44;94209.09;;;9.74;95.57
6425;BME280;12193;42.642;23.384;2023-03-04T12:25:43;94203.69;;;9.82;95.71
6425;BME280;12193;42.642;23.384;2023-03-04T12:28:43;94204.50;;;9.69;95.83
6425;BME280;12193;42.642;23.384;2023-03-04T12:31:32;94195.75;;;9.51;97.77
6425;BME280;12193;42.642;23.384;2023-03-04T12:37:15;94193.38;;;9.24;97.97
6425;BME280;12193;42.642;23.384;2023-03-04T12:42:50;94192.59;;;9.17;98.43
6425;BME280;12193;42.642;23.384;2023-03-04T12:45:30;94187.22;;;9.05;99.02
6425;BME280;12193;42.642;23.384;2023-03-04T12:48:09;94182.00;;;8.99;100.00
6425;BME280;12193;42.642;23.384;2023-03-04T12:50:53;94187.00;;;8.94;100.00
6425;BME280;12193;42.642;23.384;2023-03-04T12:53:29;94172.63;;;8.98;100.00
6425;BME280;12193;42.642;23.384;2023-03-04T12:56:02;94174.81;;;9.07;100.00
6425;BME280;12193;42.642;23.384;2023-03-04T12:58:34;94171.81;;;9.36;99.22
6425;BME280;12193;42.642;23.384;2023-03-04T13:01:10;94166.06;;;9.15;100.00
6425;BME280;12193;42.642;23.384;2023-03-04T13:03:47;94156.47;;;9.15;100.00
6425;BME280;12193;42.642;23.384;2023-03-04T13:06:40;94164.06;;;8.84;100.00
6425;BME280;12193;42.642;23.384;2023-03-04T13:09:16;94160.25;;;8.80;100.00
6425;BME280;12193;42.642;23.384;2023-03-04T13:11:53;94158.88;;;8.84;100.00
6425;BME280;12193;42.642;23.384;2023-03-04T13:14:28;94158.28;;;9.02;100.00
6425;BME280;12193;42.642;23.384;2023-03-04T13:17:05;94154.31;;;8.86;100.00
6425;BME280;12193;42.642;23.384;2023-03-04T13:19:55;94149.50;;;9.03;100.00
6425;BME280;12193;42.642;23.384;2023-03-04T13:22:44;94146.09;;;8.89;100.00
6425;BME280;12193;42.642;23.384;2023-03-04T13:25:30;94149.91;;;8.93;100.00
6425;BME280;12193;42.642;23.384;2023-03-04T13:28:15;94150.91;;;9.05;100.00
6425;BME280;12193;42.642;23.384;2023-03-04T13:34:00;94144.53;;;9.27;99.45
6425;BME280;12193;42.642;23.384;2023-03-04T13:36:57;94148.06;;;9.45;98.82
6425;BME280;12193;42.642;23.384;2023-03-04T13:39:34;94146.09;;;9.28;99.32
6425;BME280;12193;42.642;23.384;2023-03-04T13:42:36;94138.53;;;9.14;100.00
6425;BME280;12193;42.642;23.384;2023-03-04T13:45:28;94132.78;;;9.05;100.00
6425;BME280;12193;42.642;23.384;2023-03-04T13:47:59;94133.53;;;9.31;100.00
6425;BME280;12193;42.642;23.384;2023-03-04T13:50:37;94123.75;;;9.33;100.00
6425;BME280;12193;42.642;23.384;2023-03-04T13:53:28;94119.53;;;9.45;100.00
6425;BME280;12193;42.642;23.384;2023-03-04T13:56:07;94132.53;;;9.20;100.00
6425;BME280;12193;42.642;23.384;2023-03-04T13:58:38;94117.56;;;9.41;100.00
6425;BME280;12193;42.642;23.384;2023-03-04T14:01:22;94112.16;;;9.42;100.00
6425;BME280;12193;42.642;23.384;2023-03-04T14:03:52;94111.56;;;9.40;100.00
6425;BME280;12193;42.642;23.384;2023-03-04T14:06:26;94115.31;;;9.51;100.00
6425;BME280;12193;42.642;23.384;2023-03-04T14:08:56;94112.31;;;9.54;100.00
6425;BME280;12193;42.642;23.384;2023-03-04T14:11:28;94106.81;;;9.37;100.00
6425;BME280;12193;42.642;23.384;2023-03-04T14:14:04;94114.97;;;9.41;100.00
6425;BME280;12193;42.642;23.384;2023-03-04T14:16:37;94105.34;;;9.61;100.00
6425;BME280;12193;42.642;23.384;2023-03-04T14:19:15;94102.19;;;9.39;100.00
6425;BME280;12193;42.642;23.384;2023-03-04T14:21:47;94104.09;;;9.70;99.87
6425;BME280;12193;42.642;23.384;2023-03-04T14:24:19;94097.75;;;9.66;100.00
6425;BME280;12193;42.642;23.384;2023-03-04T14:26:49;94099.44;;;9.91;100.00
6425;BME280;12193;42.642;23.384;2023-03-04T14:29:21;94095.09;;;9.79;99.36
6425;BME280;12193;42.642;23.384;2023-03-04T14:31:51;94092.28;;;9.87;99.04
6425;BME280;12193;42.642;23.384;2023-03-04T14:34:25;94100.22;;;9.98;98.83
6425;BME280;12193;42.642;23.384;2023-03-04T14:36:59;94091.84;;;10.33;97.66
6425;BME280;12193;42.642;23.384;2023-03-04T14:39:32;94100.22;;;10.35;97.13
6425;BME280;12193;42.642;23.384;2023-03-04T14:42:07;94091.41;;;10.06;98.33
6425;BME280;12193;42.642;23.384;2023-03-04T14:44:41;94085.19;;;9.50;100.00
6425;BME280;12193;42.642;23.384;2023-03-04T14:47:15;94084.59;;;9.54;100.00
6425;BME280;12193;42.642;23.384;2023-03-04T14:49:46;94079.72;;;9.71;100.00
6425;BME280;12193;42.642;23.384;2023-03-04T14:52:42;94072.34;;;9.74;100.00
6425;BME280;12193;42.642;23.384;2023-03-04T14:55:23;94071.63;;;9.48;100.00
6425;BME280;12193;42.642;23.384;2023-03-04T14:57:54;94068.66;;;9.44;100.00
6425;BME280;12193;42.642;23.384;2023-03-04T15:00:35;94068.66;;;9.44;100.00
6425;BME280;12193;42.642;23.384;2023-03-04T15:03:19;94076.66;;;9.43;100.00
6425;BME280;12193;42.642;23.384;2023-03-04T15:05:49;94075.25;;;9.47;100.00
6425;BME280;12193;42.642;23.384;2023-03-04T15:08:26;94073.88;;;9.38;100.00
6425;BME280;12193;42.642;23.384;2023-03-04T15:10:58;94063.28;;;9.46;100.00
6425;BME280;12193;42.642;23.384;2023-03-04T15:13:38;94063.88;;;9.35;100.00
6425;BME280;12193;42.642;23.384;2023-03-04T15:16:08;94061.78;;;9.06;100.00
6425;BME280;12193;42.642;23.384;2023-03-04T15:18:38;94063.59;;;8.86;100.00
6425;BME280;12193;42.642;23.384;2023-03-04T15:21:29;94056.19;;;9.03;100.00
6425;BME280;12193;42.642;23.384;2023-03-04T15:24:06;94056.75;;;9.11;100.00
6425;BME280;12193;42.642;23.384;2023-03-04T15:26:38;94054.78;;;9.13;100.00
6425;BME280;12193;42.642;23.384;2023-03-04T15:29:13;94053.78;;;9.14;100.00
6425;BME280;12193;42.642;23.384;2023-03-04T15:31:43;94047.63;;;9.02;100.00
6425;BME280;12193;42.642;23.384;2023-03-04T15:34:14;94047.88;;;8.75;100.00
6425;BME280;12193;42.642;23.384;2023-03-04T15:36:45;94044.47;;;8.74;100.00
6425;BME280;12193;42.642;23.384;2023-03-04T15:39:18;94044.84;;;8.71;100.00
6425;BME280;12193;42.642;23.384;2023-03-04T15:41:48;94040.88;;;8.69;100.00
6425;BME280;12193;42.642;23.384;2023-03-04T15:44:18;94035.72;;;8.62;100.00
6425;BME280;12193;42.642;23.384;2023-03-04T15:46:47;94031.72;;;8.47;100.00
6425;BME280;12193;42.642;23.384;2023-03-04T15:49:16;94033.31;;;8.41;100.00
6425;BME280;12193;42.642;23.384;2023-03-04T15:51:46;94023.75;;;8.42;100.00
6425;BME280;12193;42.642;23.384;2023-03-04T15:54:22;94013.00;;;8.45;100.00
6425;BME280;12193;42.642;23.384;2023-03-04T15:56:55;94018.78;;;8.40;100.00
6425;BME280;12193;42.642;23.384;2023-03-04T15:59:25;94020.38;;;8.41;100.00
6425;BME280;12193;42.642;23.384;2023-03-04T16:01:55;94024.34;;;8.37;100.00
6425;BME280;12193;42.642;23.384;2023-03-04T16:04:24;94033.06;;;8.17;100.00
6425;BME280;12193;42.642;23.384;2023-03-04T16:06:54;94032.88;;;8.12;100.00
6425;BME280;12193;42.642;23.384;2023-03-04T16:09:28;94040.84;;;8.17;100.00
6425;BME280;12193;42.642;23.384;2023-03-04T16:11:58;94034.50;;;8.26;100.00
6425;BME280;12193;42.642;23.384;2023-03-04T16:14:27;94037.47;;;8.23;100.00
6425;BME280;12193;42.642;23.384;2023-03-04T16:16:56;94031.44;;;8.10;100.00
6425;BME280;12193;42.642;23.384;2023-03-04T16:19:26;94030.66;;;8.03;100.00
6425;BME280;12193;42.642;23.384;2023-03-04T16:21:55;94028.84;;;8.03;100.00
6425;BME280;12193;42.642;23.384;2023-03-04T16:24:28;94030.84;;;8.01;100.00
6425;BME280;12193;42.642;23.384;2023-03-04T16:26:59;94034.25;;;8.02;100.00
6425;BME280;12193;42.642;23.384;2023-03-04T16:29:29;94037.41;;;7.97;100.00
6425;BME280;12193;42.642;23.384;2023-03-04T16:31:58;94033.03;;;7.91;100.00
6425;BME280;12193;42.642;23.384;2023-03-04T16:34:27;94033.19;;;7.90;100.00
6425;BME280;12193;42.642;23.384;2023-03-04T16:36:57;94038.75;;;7.87;100.00
6425;BME280;12193;42.642;23.384;2023-03-04T16:39:29;94050.53;;;7.83;100.00
6425;BME280;12193;42.642;23.384;2023-03-04T16:41:58;94042.75;;;7.83;100.00
6425;BME280;12193;42.642;23.384;2023-03-04T16:44:28;94040.97;;;7.83;100.00
6425;BME280;12193;42.642;23.384;2023-03-04T16:46:57;94040.34;;;7.81;100.00
6425;BME280;12193;42.642;23.384;2023-03-04T16:49:28;94047.94;;;7.83;100.00